createdAt,value
2023-04-17T00:02:42.695Z,52.1
2023-04-17T00:08:36.316Z,52.1
2023-04-17T00:14:42.533Z,52
2023-04-17T00:31:32.125Z,51.9
2023-04-17T00:37:23.796Z,51.8
2023-04-17T00:43:15.401Z,51.8
2023-04-17T00:49:07.066Z,51.8
2023-04-17T00:54:58.852Z,51.8
2023-04-17T01:00:51.064Z,51.7
2023-04-17T01:06:45.764Z,51.7
2023-04-17T01:17:57.697Z,53.1
2023-04-17T01:23:49.468Z,54.7
2023-04-17T01:29:40.479Z,56.3
2023-04-17T01:35:32.324Z,57.9
2023-04-17T01:41:08.394Z,59.4
2023-04-17T01:47:00.291Z,59.6
2023-04-17T01:52:36.614Z,59.6
2023-04-17T01:58:12.853Z,59.6
2023-04-17T02:04:05.604Z,60.6
2023-04-17T02:09:42.971Z,61.8
2023-04-17T02:15:34.220Z,61.9
2023-04-17T02:21:10.709Z,61.9
2023-04-17T02:26:47.205Z,61.8
2023-04-17T02:32:39.431Z,61.8
2023-04-17T02:38:30.286Z,61.8
2023-04-17T02:44:21.766Z,61.8
2023-04-17T02:49:58.846Z,61.7
2023-04-17T02:55:50.243Z,61.6
2023-04-17T03:01:41.890Z,61.6
2023-04-17T03:07:35.480Z,61.5
2023-04-17T03:13:26.701Z,61.5
2023-04-17T03:19:21.354Z,61.4
2023-04-17T03:25:13.165Z,61.4
2023-04-17T03:30:48.751Z,61.4
2023-04-17T03:36:27.878Z,61.3
2023-04-17T03:42:20.361Z,61.3
2023-04-17T03:47:56.581Z,61.2
2023-04-17T03:53:32.901Z,61.1
2023-04-17T03:59:24.307Z,61.1
2023-04-17T04:05:02.236Z,61.1
2023-04-17T04:10:53.387Z,60.9
2023-04-17T04:16:30.312Z,60.8
2023-04-17T04:22:06.941Z,60.7
2023-04-17T04:27:58.912Z,60.7
2023-04-17T04:33:37.419Z,60.6
2023-04-17T04:39:00.718Z,60.6
2023-04-17T04:44:36.929Z,60.5
2023-04-17T04:49:58.331Z,60.4
2023-04-17T04:55:17.949Z,60.4
2023-04-17T05:00:53.881Z,60.3
2023-04-17T05:06:33.535Z,60.3
2023-04-17T05:12:09.785Z,60.3
2023-04-17T05:18:03.224Z,60.1
2023-04-17T05:23:55.227Z,60.1
2023-04-17T05:29:30.913Z,60
2023-04-17T05:35:07.484Z,60
2023-04-17T05:40:47.161Z,59.9
2023-04-17T05:46:22.728Z,59.9
2023-04-17T05:51:59.180Z,59.8
2023-04-17T05:57:36.211Z,59.8
2023-04-17T06:03:27.827Z,59.7
2023-04-17T06:09:07.418Z,59.7
2023-04-17T06:14:45.777Z,59.6
2023-04-17T06:20:21.857Z,59.6
2023-04-17T06:25:59.830Z,59.5
2023-04-17T06:31:35.822Z,59.4
2023-04-17T06:37:20.321Z,59.4
2023-04-17T06:42:41.074Z,59.3
2023-04-17T06:48:18.217Z,59.3
2023-04-17T06:53:53.638Z,59.2
2023-04-17T06:59:29.891Z,59.1
2023-04-17T07:05:11.609Z,59.1
2023-04-17T07:10:31.572Z,59
2023-04-17T07:15:53.029Z,58.9
2023-04-17T07:21:31.053Z,58.9
2023-04-17T07:27:07.400Z,58.9
2023-04-17T07:32:44.154Z,58.8
2023-04-17T07:38:21.203Z,58.8
2023-04-17T07:44:00.250Z,58.7
2023-04-17T07:49:27.278Z,58.7
2023-04-17T07:55:04.453Z,58.6
2023-04-17T08:06:06.819Z,58.5
2023-04-17T08:11:56.017Z,58.4
2023-04-17T08:17:17.674Z,58.4
2023-04-17T08:22:54.638Z,58.4
2023-04-17T08:28:34.763Z,58.3
2023-04-17T08:34:43.551Z,58.3
2023-04-17T08:40:22.738Z,58.2
2023-04-17T08:46:16.692Z,58.1
2023-04-17T08:52:08.433Z,58.1
2023-04-17T08:57:29.056Z,58
2023-04-17T09:03:07.780Z,58
2023-04-17T09:08:45.661Z,57.9
2023-04-17T09:14:37.728Z,57.9
2023-04-17T09:19:59.906Z,57.8
2023-04-17T09:36:20.826Z,57.7
2023-04-17T09:42:13.583Z,57.6
2023-04-17T09:48:05.354Z,57.6
2023-04-17T09:53:58.650Z,57.6
2023-04-17T09:59:35.299Z,57.5
2023-04-17T10:05:29.385Z,57.4
2023-04-17T10:11:21.829Z,57.4
2023-04-17T10:17:13.673Z,57.3
2023-04-17T10:23:07.930Z,57.3
2023-04-17T10:29:00.756Z,57.3
2023-04-17T10:34:56.914Z,57.2
2023-04-17T10:40:33.674Z,57.1
2023-04-17T10:46:26.610Z,57.1
2023-04-17T10:52:20.044Z,57
2023-04-17T10:58:12.186Z,56.9
2023-04-17T11:04:09.849Z,56.9
2023-04-17T11:09:47.376Z,56.9
2023-04-17T11:15:40.270Z,56.8
2023-04-17T11:21:17.773Z,56.8
2023-04-17T11:26:54.340Z,56.7
2023-04-17T11:32:15.219Z,56.7
2023-04-17T11:37:53.106Z,56.6
2023-04-17T11:43:14.330Z,56.6
2023-04-17T11:49:06.689Z,56.6
2023-04-17T11:54:58.363Z,56.5
2023-04-17T12:00:50.747Z,56.4
2023-04-17T12:06:30.473Z,56.4
2023-04-17T12:12:22.866Z,56.3
2023-04-17T12:17:59.206Z,56.3
2023-04-17T12:23:50.747Z,56.3
2023-04-17T12:29:11.891Z,56.2
2023-04-17T12:35:04.087Z,56.1
2023-04-17T12:40:57.692Z,56.1
2023-04-17T12:46:47.857Z,56
2023-04-17T12:52:39.487Z,56
2023-04-17T12:58:30.592Z,55.9
2023-04-17T13:04:25.472Z,55.9
2023-04-17T13:10:01.396Z,55.9
2023-04-17T13:15:37.301Z,55.8
2023-04-17T13:21:31.114Z,55.8
2023-04-17T13:27:22.590Z,55.7
2023-04-17T13:33:16.469Z,55.6
2023-04-17T13:39:11.436Z,55.6
2023-04-17T13:44:48.006Z,55.6
2023-04-17T13:50:42.213Z,55.5
2023-04-17T13:56:35.151Z,55.4
2023-04-17T14:02:11.371Z,55.4
2023-04-17T14:07:51.758Z,55.4
2023-04-17T14:13:46.858Z,55.3
2023-04-17T14:19:46.613Z,55.3
2023-04-17T14:25:07.142Z,55.2
2023-04-17T14:30:43.657Z,55.2
2023-04-17T14:36:22.303Z,55.1
2023-04-17T14:42:02.209Z,55.1
2023-04-17T14:48:11.016Z,55
2023-04-17T14:54:13.208Z,55
2023-04-17T15:00:04.143Z,54.9
2023-04-17T15:05:58.004Z,54.9
2023-04-17T15:11:49.995Z,54.8
2023-04-17T15:17:26.203Z,54.8
2023-04-17T15:23:18.020Z,54.8
2023-04-17T15:29:09.126Z,54.7
2023-04-17T15:35:00.589Z,54.6
2023-04-17T15:40:52.651Z,54.6
2023-04-17T15:46:48.369Z,54.6
2023-04-17T15:53:04.396Z,54.5
2023-04-17T15:58:56.021Z,54.4
2023-04-17T16:04:49.467Z,54.4
2023-04-17T16:10:25.487Z,54.3
2023-04-17T16:16:17.087Z,54.3
2023-04-17T16:22:09.027Z,54.3
2023-04-17T16:28:00.622Z,54.2
2023-04-17T16:33:37.896Z,54.1
2023-04-17T16:39:18.829Z,54.1
2023-04-17T16:44:56.202Z,54.1
2023-04-17T16:51:28.865Z,54
2023-04-17T16:57:19.948Z,54
2023-04-17T17:03:12.008Z,53.9
2023-04-17T17:13:54.495Z,53.8
2023-04-17T17:19:46.309Z,53.8
2023-04-17T17:25:21.652Z,53.8
2023-04-17T17:31:13.068Z,53.7
2023-04-17T17:37:00.873Z,53.6
2023-04-17T17:42:37.738Z,53.6
2023-04-17T17:48:31.508Z,53.6
2023-04-17T17:54:25.548Z,53.5
2023-04-17T18:00:15.458Z,53.4
2023-04-17T18:05:54.348Z,53.4
2023-04-17T18:11:14.818Z,53.4
2023-04-17T18:16:52.069Z,53.3
2023-04-17T18:22:28.221Z,53.3
2023-04-17T18:28:03.720Z,53.3
2023-04-17T18:33:40.174Z,53.2
2023-04-17T18:39:35.019Z,53.1
2023-04-17T18:45:10.731Z,53.1
2023-04-17T18:50:47.657Z,53.1
2023-04-17T18:56:29.921Z,53
2023-04-17T19:01:51.667Z,52.9
2023-04-17T19:07:14.263Z,52.9
2023-04-17T19:13:07.206Z,52.9
2023-04-17T19:18:59.924Z,52.8
2023-04-17T19:24:52.809Z,52.8
2023-04-17T19:30:30.290Z,52.8
2023-04-17T19:36:23.461Z,52.7
2023-04-17T19:41:57.385Z,52.6
2023-04-17T19:47:52.715Z,52.6
2023-04-17T19:53:15.452Z,52.6
2023-04-17T19:58:53.638Z,52.5
2023-04-17T20:04:35.100Z,52.4
2023-04-17T20:10:11.409Z,52.4
2023-04-17T20:21:42.454Z,52.3
2023-04-17T20:27:33.841Z,52.3
2023-04-17T20:33:27.361Z,52.3
2023-04-17T20:39:02.671Z,52.2
2023-04-17T20:44:39.581Z,52.2
2023-04-17T20:50:44.781Z,52.1
2023-04-17T20:56:36.307Z,52.1
2023-04-17T21:08:03.695Z,52
2023-04-17T21:19:00.513Z,51.9
2023-04-17T21:24:52.087Z,51.9
2023-04-17T21:30:27.537Z,51.8
2023-04-17T21:36:04.288Z,51.8
2023-04-17T21:41:42.852Z,51.7
2023-04-17T21:47:34.089Z,51.7
2023-04-17T21:53:25.353Z,51.6
2023-04-17T21:59:17.063Z,51.6
2023-04-17T22:05:09.008Z,51.6
2023-04-17T22:10:40.597Z,51.5
2023-04-17T22:16:16.853Z,51.4
2023-04-17T22:22:08.832Z,51.4
2023-04-17T22:27:44.919Z,51.4
2023-04-17T22:33:21.289Z,51.4
2023-04-17T22:39:12.117Z,51.3
2023-04-17T22:44:48.511Z,51.3
2023-04-17T22:50:10.186Z,51.2
2023-04-17T22:55:57.404Z,51.1
2023-04-17T23:01:48.295Z,51.1
2023-04-17T23:07:25.679Z,51.1
2023-04-17T23:13:17.308Z,51.1
2023-04-17T23:18:38.352Z,51
2023-04-17T23:24:04.559Z,50.9
2023-04-17T23:29:40.682Z,50.9
2023-04-17T23:35:17.237Z,50.9
2023-04-17T23:40:53.842Z,50.8
2023-04-17T23:46:30.530Z,50.8
2023-04-17T23:52:22.438Z,50.8
2023-04-17T23:58:14.663Z,50.7
